createdAt,value
2023-01-19T00:00:55.151Z,73.22
2023-01-19T00:03:22.064Z,73.29
2023-01-19T00:05:49.073Z,73.23
2023-01-19T00:08:16.986Z,73.47
2023-01-19T00:10:45.823Z,73.28
2023-01-19T00:13:14.154Z,73.13
2023-01-19T00:15:41.011Z,73.10
2023-01-19T00:18:09.857Z,73.05
2023-01-19T00:20:38.132Z,73.13
2023-01-19T00:23:05.738Z,72.94
2023-01-19T00:25:32.408Z,72.97
2023-01-19T00:28:01.338Z,72.73
2023-01-19T00:30:28.751Z,72.63
2023-01-19T00:32:56.268Z,72.62
2023-01-19T00:35:23.019Z,72.74
2023-01-19T00:37:49.853Z,72.53
2023-01-19T00:40:17.185Z,72.61
2023-01-19T00:42:44.516Z,72.51
2023-01-19T00:45:14.205Z,72.33
2023-01-19T00:47:42.565Z,72.17
2023-01-19T00:50:14.145Z,72.26
2023-01-19T00:52:41.704Z,72.27
2023-01-19T00:55:09.969Z,72.30
2023-01-19T00:57:36.998Z,72.11
2023-01-19T01:00:11.673Z,72.22
2023-01-19T01:02:40.090Z,71.94
2023-01-19T01:05:08.021Z,71.94
2023-01-19T01:07:41.366Z,71.80
2023-01-19T01:10:17.593Z,72.01
2023-01-19T01:12:56.415Z,71.90
2023-01-19T01:15:26.635Z,72.01
2023-01-19T01:17:53.561Z,72.01
2023-01-19T01:20:28.151Z,72.41
2023-01-19T01:22:56.271Z,72.13
2023-01-19T01:25:24.461Z,72.34
2023-01-19T01:27:51.509Z,72.14
2023-01-19T01:30:18.607Z,72.40
2023-01-19T01:32:45.632Z,72.24
2023-01-19T01:35:13.408Z,72.46
2023-01-19T01:37:40.521Z,72.29
2023-01-19T01:40:08.018Z,72.41
2023-01-19T01:42:34.899Z,72.29
2023-01-19T01:45:06.275Z,72.57
2023-01-19T01:47:42.576Z,72.62
2023-01-19T01:50:16.092Z,72.43
2023-01-19T01:53:07.347Z,72.36
2023-01-19T01:55:43.002Z,72.41
2023-01-19T01:58:11.353Z,72.28
2023-01-19T02:00:58.931Z,72.05
2023-01-19T02:03:27.116Z,72.36
2023-01-19T02:06:00.820Z,72.58
2023-01-19T02:08:55.936Z,72.80
2023-01-19T02:11:41.516Z,72.73
2023-01-19T02:14:08.327Z,72.71
2023-01-19T02:16:37.680Z,73.00
2023-01-19T02:19:07.246Z,72.98
2023-01-19T02:21:46.738Z,73.02
2023-01-19T02:24:13.674Z,73.15
2023-01-19T02:26:44.477Z,73.10
2023-01-19T02:29:14.499Z,73.05
2023-01-19T02:31:41.410Z,73.24
2023-01-19T02:34:11.271Z,73.19
2023-01-19T02:37:02.215Z,73.12
2023-01-19T02:39:39.706Z,73.11
2023-01-19T02:42:20.746Z,73.26
2023-01-19T02:44:50.547Z,73.45
2023-01-19T02:47:17.203Z,73.46
2023-01-19T02:49:43.943Z,73.48
2023-01-19T02:52:18.076Z,73.64
2023-01-19T02:54:54.251Z,73.63
2023-01-19T02:57:27.516Z,73.57
2023-01-19T03:00:09.861Z,73.31
2023-01-19T03:02:45.987Z,73.52
2023-01-19T03:05:12.602Z,73.50
2023-01-19T03:08:14.807Z,73.54
2023-01-19T03:10:56.980Z,73.90
2023-01-19T03:13:32.818Z,73.90
2023-01-19T03:16:14.211Z,74.65
2023-01-19T03:18:47.125Z,74.57
2023-01-19T03:21:16.235Z,74.46
2023-01-19T03:23:46.376Z,74.62
2023-01-19T03:26:19.947Z,74.65
2023-01-19T03:28:49.001Z,74.79
2023-01-19T03:31:20.837Z,74.64
2023-01-19T03:33:51.920Z,74.73
2023-01-19T03:36:31.261Z,75.24
2023-01-19T03:39:00.215Z,74.75
2023-01-19T03:41:28.616Z,74.85
2023-01-19T03:43:55.864Z,74.90
2023-01-19T03:46:24.643Z,74.78
2023-01-19T03:48:52.162Z,74.68
2023-01-19T03:51:19.656Z,74.50
2023-01-19T03:53:46.977Z,74.76
2023-01-19T03:56:23.737Z,74.76
2023-01-19T03:58:51.389Z,74.39
2023-01-19T04:01:23.024Z,74.46
2023-01-19T04:03:50.602Z,74.39
2023-01-19T04:06:17.648Z,74.12
2023-01-19T04:08:44.596Z,74.37
2023-01-19T04:11:11.736Z,74.30
2023-01-19T04:13:38.405Z,74.14
2023-01-19T04:16:06.150Z,73.86
2023-01-19T04:18:34.936Z,73.78
2023-01-19T04:21:06.274Z,73.63
2023-01-19T04:23:33.834Z,73.66
2023-01-19T04:26:03.185Z,73.49
2023-01-19T04:28:30.266Z,73.61
2023-01-19T04:30:57.323Z,73.40
2023-01-19T04:33:24.544Z,73.82
2023-01-19T04:35:54.389Z,73.97
2023-01-19T04:38:21.807Z,73.61
2023-01-19T04:40:52.897Z,73.66
2023-01-19T04:43:20.835Z,73.61
2023-01-19T04:45:48.712Z,73.48
2023-01-19T04:48:16.759Z,73.66
2023-01-19T04:50:43.478Z,73.60
2023-01-19T04:53:11.021Z,73.45
2023-01-19T04:55:38.723Z,73.46
2023-01-19T04:58:05.800Z,73.50
2023-01-19T05:00:32.526Z,73.36
2023-01-19T05:02:59.879Z,73.38
2023-01-19T05:05:27.492Z,73.11
2023-01-19T05:07:54.811Z,73.26
2023-01-19T05:10:21.879Z,73.34
2023-01-19T05:12:48.727Z,73.02
2023-01-19T05:15:15.551Z,73.25
2023-01-19T05:17:42.865Z,73.02
2023-01-19T05:20:13.778Z,73.02
2023-01-19T05:22:41.688Z,72.96
2023-01-19T05:25:08.948Z,72.73
2023-01-19T05:27:36.712Z,72.66
2023-01-19T05:30:05.125Z,72.53
2023-01-19T05:32:31.837Z,72.46
2023-01-19T05:34:58.580Z,72.63
2023-01-19T05:37:25.336Z,72.77
2023-01-19T05:39:52.343Z,72.89
2023-01-19T05:42:19.097Z,72.84
2023-01-19T05:44:45.757Z,72.88
2023-01-19T05:47:12.466Z,73.26
2023-01-19T05:49:39.191Z,73.16
2023-01-19T05:52:06.181Z,73.06
2023-01-19T05:54:33.019Z,73.29
2023-01-19T05:56:59.705Z,73.51
2023-01-19T05:59:26.501Z,73.57
2023-01-19T06:01:54.449Z,73.64
2023-01-19T06:04:21.574Z,73.75
2023-01-19T06:06:49.366Z,74.16
2023-01-19T06:09:17.361Z,74.29
2023-01-19T06:11:46.004Z,74.20
2023-01-19T06:14:13.366Z,75.23
2023-01-19T06:16:40.219Z,75.01
2023-01-19T06:19:07.599Z,74.49
2023-01-19T06:21:34.465Z,74.45
2023-01-19T06:24:01.468Z,74.57
2023-01-19T06:26:28.120Z,74.58
2023-01-19T06:28:55.724Z,74.47
2023-01-19T06:31:22.462Z,74.33
2023-01-19T06:33:50.014Z,74.07
2023-01-19T06:36:17.024Z,74.68
2023-01-19T06:38:44.201Z,74.62
2023-01-19T06:41:10.873Z,74.40
2023-01-19T06:43:37.566Z,74.47
2023-01-19T06:46:04.966Z,74.14
2023-01-19T06:48:31.744Z,74.68
2023-01-19T06:50:59.659Z,74.66
2023-01-19T06:53:28.188Z,74.46
2023-01-19T06:55:59.798Z,74.33
2023-01-19T06:58:27.846Z,74.63
2023-01-19T07:00:55.178Z,74.23
2023-01-19T07:03:23.368Z,74.29
2023-01-19T07:05:53.903Z,73.88
2023-01-19T07:08:20.846Z,73.57
2023-01-19T07:11:22.211Z,73.41
2023-01-19T07:13:35.449Z,73.29
2023-01-19T07:16:15.070Z,72.96
2023-01-19T07:18:41.882Z,72.97
2023-01-19T07:21:08.809Z,72.28
2023-01-19T07:23:35.629Z,72.59
2023-01-19T07:26:02.305Z,72.58
2023-01-19T07:28:30.022Z,72.38
2023-01-19T07:30:56.756Z,72.03
2023-01-19T07:33:24.986Z,71.84
2023-01-19T07:35:52.679Z,71.52
2023-01-19T07:38:20.408Z,71.58
2023-01-19T07:40:47.391Z,71.44
2023-01-19T07:43:14.397Z,71.09
2023-01-19T07:45:41.325Z,71.21
2023-01-19T07:48:08.008Z,71.25
2023-01-19T07:50:34.639Z,71.37
2023-01-19T07:53:06.382Z,70.82
2023-01-19T07:55:33.211Z,70.74
2023-01-19T07:57:59.873Z,70.59
2023-01-19T08:00:26.639Z,70.49
2023-01-19T08:02:53.937Z,70.08
2023-01-19T08:05:21.229Z,70.42
2023-01-19T08:07:48.476Z,70.10
2023-01-19T08:10:16.170Z,69.56
2023-01-19T08:12:43.239Z,69.76
2023-01-19T08:15:11.109Z,68.91
2023-01-19T08:17:37.821Z,68.89
2023-01-19T08:20:05.022Z,69.39
2023-01-19T08:22:31.604Z,69.29
2023-01-19T08:24:58.246Z,69.09
2023-01-19T08:27:25.058Z,69.13
2023-01-19T08:29:51.721Z,69.05
2023-01-19T08:32:18.997Z,69.24
2023-01-19T08:34:45.780Z,68.66
2023-01-19T08:37:12.821Z,68.83
2023-01-19T08:39:39.515Z,68.80
2023-01-19T08:42:06.118Z,69.06
2023-01-19T08:44:32.834Z,69.00
2023-01-19T08:47:00.121Z,69.13
2023-01-19T08:49:26.914Z,69.19
2023-01-19T08:51:53.535Z,68.84
2023-01-19T08:54:22.099Z,68.83
2023-01-19T08:56:48.751Z,69.86
2023-01-19T08:59:15.450Z,70.03
2023-01-19T09:01:42.209Z,69.83
2023-01-19T09:04:09.017Z,69.66
2023-01-19T09:06:35.675Z,69.42
2023-01-19T09:09:02.659Z,69.39
2023-01-19T09:11:29.325Z,68.59
2023-01-19T09:13:55.970Z,68.65
2023-01-19T09:16:22.745Z,68.50
2023-01-19T09:18:49.381Z,68.42
2023-01-19T09:21:16.105Z,68.33
2023-01-19T09:23:42.705Z,68.42
2023-01-19T09:26:10.545Z,67.72
2023-01-19T09:28:38.247Z,67.87
2023-01-19T09:31:08.838Z,67.20
2023-01-19T09:33:35.808Z,67.35
2023-01-19T09:36:02.713Z,67.07
2023-01-19T09:38:32.990Z,67.13
2023-01-19T09:41:00.900Z,67.13
2023-01-19T09:43:41.796Z,67.18
2023-01-19T09:46:16.908Z,66.51
2023-01-19T09:48:47.018Z,67.47
2023-01-19T09:51:19.977Z,66.91
2023-01-19T09:53:56.528Z,66.35
2023-01-19T09:56:23.976Z,66.99
2023-01-19T09:58:51.682Z,67.13
2023-01-19T10:01:27.577Z,66.80
2023-01-19T10:04:09.683Z,66.22
2023-01-19T10:06:36.354Z,66.98
2023-01-19T10:09:25.302Z,66.14
2023-01-19T10:12:00.965Z,64.99
2023-01-19T10:14:43.359Z,64.75
2023-01-19T10:17:47.791Z,65.01
2023-01-19T10:20:29.580Z,65.03
2023-01-19T10:22:59.413Z,64.56
2023-01-19T10:25:27.564Z,62.67
2023-01-19T10:27:54.302Z,64.13
2023-01-19T10:30:25.337Z,63.21
2023-01-19T10:32:52.916Z,63.00
2023-01-19T10:35:25.789Z,63.79
2023-01-19T10:37:56.397Z,64.23
2023-01-19T10:40:39.879Z,63.25
2023-01-19T10:43:44.449Z,63.47
2023-01-19T10:46:29.849Z,64.07
2023-01-19T10:48:56.708Z,64.33
2023-01-19T10:51:23.708Z,64.23
2023-01-19T10:54:04.265Z,62.74
2023-01-19T10:56:35.269Z,62.43
2023-01-19T10:59:05.137Z,63.18
2023-01-19T11:01:36.966Z,61.68
2023-01-19T11:04:29.348Z,61.36
2023-01-19T11:07:18.849Z,60.88
2023-01-19T11:09:46.060Z,61.51
2023-01-19T11:12:18.377Z,60.96
2023-01-19T11:14:46.013Z,60.86
2023-01-19T11:17:22.596Z,61.31
2023-01-19T11:19:59.659Z,60.11
2023-01-19T11:22:32.539Z,60.90
2023-01-19T11:25:02.077Z,62.01
2023-01-19T11:27:30.967Z,62.44
2023-01-19T11:30:22.475Z,60.64
2023-01-19T11:32:49.435Z,60.98
2023-01-19T11:35:30.699Z,61.57
2023-01-19T11:38:12.767Z,62.16
2023-01-19T11:40:41.965Z,60.78
2023-01-19T11:43:13.680Z,60.28
2023-01-19T11:45:40.932Z,61.15
2023-01-19T11:48:19.897Z,61.33
2023-01-19T11:50:49.349Z,60.51
2023-01-19T11:53:24.450Z,60.46
2023-01-19T11:55:59.001Z,59.74
2023-01-19T11:58:27.038Z,59.22
2023-01-19T12:01:00.185Z,59.74
2023-01-19T12:03:30.767Z,58.10
2023-01-19T12:06:06.871Z,58.82
2023-01-19T12:08:38.390Z,57.62
2023-01-19T12:11:08.875Z,58.68
2023-01-19T12:13:36.276Z,57.77
2023-01-19T12:16:10.603Z,58.28
2023-01-19T12:18:43.907Z,59.02
2023-01-19T12:21:10.878Z,59.37
2023-01-19T12:24:12.730Z,58.13
2023-01-19T12:26:54.307Z,59.47
2023-01-19T12:29:24.724Z,58.45
2023-01-19T12:32:12.986Z,58.20
2023-01-19T12:34:40.895Z,59.41
2023-01-19T12:37:27.831Z,58.73
2023-01-19T12:40:15.126Z,59.74
2023-01-19T12:42:47.971Z,57.47
2023-01-19T12:45:23.102Z,58.75
2023-01-19T12:47:54.174Z,58.11
2023-01-19T12:50:24.178Z,58.88
2023-01-19T12:52:57.452Z,58.29
2023-01-19T12:55:31.039Z,58.23
2023-01-19T12:58:02.601Z,58.11
2023-01-19T13:00:32.631Z,57.74
2023-01-19T13:03:19.223Z,58.77
2023-01-19T13:05:54.702Z,57.48
2023-01-19T13:08:23.825Z,58.15
2023-01-19T13:10:53.483Z,57.32
2023-01-19T13:13:37.329Z,56.99
2023-01-19T13:16:19.271Z,57.10
2023-01-19T13:19:16.442Z,57.99
2023-01-19T13:21:48.272Z,57.87
2023-01-19T13:24:24.391Z,57.04
2023-01-19T13:26:51.528Z,57.51
2023-01-19T13:29:41.270Z,56.72
2023-01-19T13:32:16.040Z,57.19
2023-01-19T13:34:45.452Z,58.31
2023-01-19T13:37:18.715Z,58.20
2023-01-19T13:39:46.442Z,58.72
2023-01-19T13:42:21.935Z,58.60
2023-01-19T13:44:52.532Z,58.22
2023-01-19T13:47:25.270Z,57.53
2023-01-19T13:49:56.842Z,57.99
2023-01-19T13:52:26.518Z,57.35
2023-01-19T13:54:55.365Z,58.22
2023-01-19T13:57:31.018Z,58.43
2023-01-19T14:00:12.021Z,58.48
2023-01-19T14:02:40.217Z,59.15
2023-01-19T14:05:36.492Z,58.94
2023-01-19T14:08:22.743Z,58.31
2023-01-19T14:10:56.382Z,58.74
2023-01-19T14:13:43.274Z,57.21
2023-01-19T14:16:16.637Z,56.01
2023-01-19T14:18:43.761Z,55.74
2023-01-19T14:21:13.105Z,56.85
2023-01-19T14:24:05.854Z,56.78
2023-01-19T14:26:38.544Z,56.63
2023-01-19T14:29:33.566Z,55.21
2023-01-19T14:32:00.177Z,55.29
2023-01-19T14:34:32.567Z,55.41
2023-01-19T14:37:00.001Z,55.82
2023-01-19T14:39:29.973Z,55.79
2023-01-19T14:42:00.273Z,56.13
2023-01-19T14:44:35.245Z,56.18
2023-01-19T14:47:02.234Z,56.48
2023-01-19T14:49:34.280Z,56.62
2023-01-19T14:52:04.583Z,57.11
2023-01-19T14:54:35.972Z,57.25
2023-01-19T14:57:03.215Z,57.03
2023-01-19T14:59:30.459Z,56.06
2023-01-19T15:01:57.224Z,54.94
2023-01-19T15:04:25.423Z,56.04
2023-01-19T15:06:52.235Z,55.84
2023-01-19T15:09:18.978Z,56.13
2023-01-19T15:11:48.761Z,56.42
2023-01-19T15:14:16.803Z,56.66
2023-01-19T15:16:43.779Z,56.68
2023-01-19T15:19:15.677Z,56.59
2023-01-19T15:21:42.974Z,56.54
2023-01-19T15:24:10.644Z,55.93
2023-01-19T15:26:39.705Z,55.98
2023-01-19T15:29:26.207Z,55.09
2023-01-19T15:31:53.160Z,55.67
2023-01-19T15:34:19.876Z,55.44
2023-01-19T15:36:46.511Z,55.15
2023-01-19T15:39:13.119Z,55.62
2023-01-19T15:41:40.539Z,55.80
2023-01-19T15:44:10.815Z,56.34
2023-01-19T15:46:38.114Z,56.46
2023-01-19T15:49:05.860Z,56.28
2023-01-19T15:51:33.041Z,56.22
2023-01-19T15:53:59.717Z,55.82
2023-01-19T15:56:31.310Z,55.66
2023-01-19T15:58:58.951Z,56.14
2023-01-19T16:01:31.628Z,56.41
2023-01-19T16:04:04.170Z,55.93
2023-01-19T16:06:31.697Z,55.98
2023-01-19T16:09:01.836Z,56.74
2023-01-19T16:11:32.041Z,57.05
2023-01-19T16:13:59.023Z,56.50
2023-01-19T16:16:28.045Z,56.81
2023-01-19T16:18:55.561Z,57.49
2023-01-19T16:21:22.604Z,57.40
2023-01-19T16:23:49.460Z,57.47
2023-01-19T16:26:34.658Z,56.10
2023-01-19T16:29:08.667Z,56.98
2023-01-19T16:31:36.512Z,57.16
2023-01-19T16:34:03.304Z,56.75
2023-01-19T16:36:32.668Z,57.05
2023-01-19T16:39:08.052Z,57.26
2023-01-19T16:41:35.261Z,57.38
2023-01-19T16:44:02.329Z,57.44
2023-01-19T16:46:33.965Z,57.43
2023-01-19T16:49:15.496Z,57.35
2023-01-19T16:51:42.673Z,57.65
2023-01-19T16:54:26.402Z,57.55
2023-01-19T16:56:54.385Z,58.36
2023-01-19T16:59:22.436Z,58.85
2023-01-19T17:01:51.066Z,58.64
2023-01-19T17:04:19.232Z,58.64
2023-01-19T17:06:46.922Z,58.58
2023-01-19T17:09:13.881Z,58.92
2023-01-19T17:11:41.292Z,58.70
2023-01-19T17:14:14.132Z,58.71
2023-01-19T17:16:41.390Z,58.66
2023-01-19T17:19:09.109Z,58.13
2023-01-19T17:21:35.891Z,58.47
2023-01-19T17:24:02.636Z,58.63
2023-01-19T17:26:31.132Z,58.61
2023-01-19T17:29:02.128Z,57.96
2023-01-19T17:31:30.246Z,57.99
2023-01-19T17:33:57.095Z,58.12
2023-01-19T17:36:25.442Z,58.04
2023-01-19T17:38:53.875Z,58.21
2023-01-19T17:41:22.967Z,58.09
2023-01-19T17:43:51.314Z,57.56
2023-01-19T17:46:19.750Z,57.36
2023-01-19T17:48:53.977Z,56.87
2023-01-19T17:51:22.912Z,57.36
2023-01-19T17:53:50.576Z,57.82
2023-01-19T17:56:21.618Z,57.87
2023-01-19T17:58:49.551Z,57.89
2023-01-19T18:01:21.484Z,58.06
2023-01-19T18:03:48.355Z,58.33
2023-01-19T18:06:15.793Z,58.25
2023-01-19T18:08:44.973Z,58.23
2023-01-19T18:11:13.301Z,58.04
2023-01-19T18:13:42.784Z,58.08
2023-01-19T18:16:12.343Z,57.86
2023-01-19T18:18:38.991Z,57.00
2023-01-19T18:21:09.519Z,57.68
2023-01-19T18:23:36.908Z,57.65
2023-01-19T18:26:08.729Z,57.65
2023-01-19T18:28:36.085Z,57.54
2023-01-19T18:31:07.066Z,57.70
2023-01-19T18:33:34.243Z,57.56
2023-01-19T18:36:01.183Z,57.93
2023-01-19T18:38:28.375Z,58.39
2023-01-19T18:41:06.299Z,58.21
2023-01-19T18:43:33.258Z,58.46
2023-01-19T18:46:00.226Z,58.05
2023-01-19T18:48:26.987Z,58.00
2023-01-19T18:50:54.113Z,58.12
2023-01-19T18:53:21.039Z,58.25
2023-01-19T18:55:55.321Z,57.88
2023-01-19T18:58:22.411Z,58.06
2023-01-19T19:00:50.263Z,58.17
2023-01-19T19:03:17.571Z,58.18
2023-01-19T19:05:44.480Z,57.57
2023-01-19T19:08:11.575Z,57.48
2023-01-19T19:10:40.764Z,57.84
2023-01-19T19:13:08.047Z,58.12
2023-01-19T19:15:34.943Z,57.53
2023-01-19T19:18:01.865Z,57.49
2023-01-19T19:20:29.014Z,57.46
2023-01-19T19:22:56.209Z,58.04
2023-01-19T19:25:23.414Z,57.45
2023-01-19T19:27:54.153Z,57.89
2023-01-19T19:30:21.346Z,57.94
2023-01-19T19:32:56.120Z,57.78
2023-01-19T19:35:25.079Z,58.32
2023-01-19T19:37:53.764Z,57.45
2023-01-19T19:40:20.477Z,57.72
2023-01-19T19:42:47.154Z,57.59
2023-01-19T19:45:14.962Z,57.66
2023-01-19T19:47:43.131Z,57.64
2023-01-19T19:50:11.768Z,57.79
2023-01-19T19:52:40.029Z,57.87
2023-01-19T19:55:08.975Z,57.79
2023-01-19T19:57:35.880Z,57.78
2023-01-19T20:00:05.188Z,58.19
2023-01-19T20:02:36.683Z,58.15
2023-01-19T20:05:04.017Z,57.80
2023-01-19T20:07:31.137Z,58.00
2023-01-19T20:09:57.905Z,57.92
2023-01-19T20:12:24.541Z,57.84
2023-01-19T20:14:51.291Z,57.99
2023-01-19T20:17:19.104Z,57.93
2023-01-19T20:19:47.623Z,57.94
2023-01-19T20:22:14.947Z,57.57
2023-01-19T20:24:41.645Z,57.87
2023-01-19T20:27:08.313Z,58.16
2023-01-19T20:29:35.490Z,57.82
2023-01-19T20:32:02.132Z,57.76
2023-01-19T20:34:33.363Z,58.13
2023-01-19T20:37:01.992Z,58.00
2023-01-19T20:39:33.195Z,58.05
2023-01-19T20:42:02.228Z,58.04
2023-01-19T20:44:29.076Z,57.83
2023-01-19T20:46:56.220Z,57.90
2023-01-19T20:49:23.287Z,57.92
2023-01-19T20:51:52.165Z,57.87
2023-01-19T20:54:21.105Z,57.86
2023-01-19T20:56:47.821Z,57.86
2023-01-19T20:59:14.856Z,57.82
2023-01-19T21:01:42.128Z,56.98
2023-01-19T21:04:09.540Z,57.32
2023-01-19T21:06:36.902Z,57.26
2023-01-19T21:09:04.160Z,57.39
2023-01-19T21:11:31.513Z,57.40
2023-01-19T21:13:58.327Z,57.53
2023-01-19T21:16:28.348Z,57.79
2023-01-19T21:18:55.309Z,57.83
2023-01-19T21:21:30.526Z,57.72
2023-01-19T21:23:59.228Z,57.79
2023-01-19T21:26:27.023Z,57.63
2023-01-19T21:28:54.141Z,58.10
2023-01-19T21:31:27.078Z,58.08
2023-01-19T21:33:54.362Z,57.98
2023-01-19T21:36:22.549Z,58.09
2023-01-19T21:38:51.401Z,58.12
2023-01-19T21:41:18.697Z,58.12
2023-01-19T21:43:46.489Z,57.98
2023-01-19T21:46:14.976Z,58.29
2023-01-19T21:48:42.641Z,58.20
2023-01-19T21:51:10.134Z,58.08
2023-01-19T21:53:41.165Z,58.19
2023-01-19T21:56:13.681Z,58.18
2023-01-19T21:58:40.341Z,57.96
2023-01-19T22:01:13.877Z,58.05
2023-01-19T22:03:41.539Z,58.12
2023-01-19T22:06:11.476Z,58.63
2023-01-19T22:08:38.818Z,58.67
2023-01-19T22:11:11.539Z,58.85
2023-01-19T22:13:39.106Z,58.53
2023-01-19T22:16:14.283Z,58.42
2023-01-19T22:18:43.688Z,58.49
2023-01-19T22:21:13.103Z,58.56
2023-01-19T22:23:40.532Z,59.09
2023-01-19T22:26:08.701Z,59.16
2023-01-19T22:28:36.765Z,59.49
2023-01-19T22:31:17.585Z,59.61
2023-01-19T22:33:45.122Z,59.25
2023-01-19T22:36:22.868Z,59.10
2023-01-19T22:38:58.386Z,58.94
2023-01-19T22:41:30.145Z,58.87
2023-01-19T22:43:58.955Z,58.69
2023-01-19T22:46:28.049Z,58.71
2023-01-19T22:48:55.739Z,58.67
2023-01-19T22:51:23.648Z,58.52
2023-01-19T22:53:50.820Z,59.06
2023-01-19T22:56:18.763Z,59.36
2023-01-19T22:58:46.520Z,59.52
2023-01-19T23:01:17.976Z,59.57
2023-01-19T23:03:45.487Z,59.11
2023-01-19T23:06:14.298Z,59.24
2023-01-19T23:08:41.696Z,59.30
2023-01-19T23:11:17.804Z,59.61
2023-01-19T23:13:45.404Z,59.18
2023-01-19T23:16:13.313Z,59.18
2023-01-19T23:18:41.419Z,59.64
2023-01-19T23:21:12.708Z,59.73
2023-01-19T23:23:39.812Z,59.84
2023-01-19T23:26:17.495Z,59.96
2023-01-19T23:28:45.449Z,59.77
2023-01-19T23:31:25.785Z,59.17
2023-01-19T23:34:01.149Z,59.29
2023-01-19T23:36:30.184Z,59.56
2023-01-19T23:39:00.120Z,59.99
2023-01-19T23:41:30.866Z,60.12
2023-01-19T23:43:57.500Z,60.35
2023-01-19T23:46:24.794Z,60.49
2023-01-19T23:48:52.032Z,60.50
2023-01-19T23:51:24.374Z,60.68
2023-01-19T23:53:51.666Z,60.80
2023-01-19T23:56:24.287Z,60.76
2023-01-19T23:59:02.613Z,61.00
